Time;durP1;ratioP1;P1;durP2;ratioP2;P2;SDS_P1;SDS_P2;PMS_P1;PMS_P2;Temp;Humidity;BMP_temperature;BMP_pressure;BME280_temperature;BME280_humidity;BME280_pressure;Samples;Min_cycle;Max_cycle;Signal;HPM_P1;HPM_P2
2021/06/22 00:00:25;;;;;;;0.60;0.30;;;18.70;75.90;;;;;;5092236;28;20470;-75
2021/06/22 00:02:52;;;;;;;0.65;0.40;;;18.70;76.40;;;;;;5091855;28;20600;-75
2021/06/22 00:05:19;;;;;;;0.85;0.40;;;18.70;76.30;;;;;;5090219;28;20363;-75
2021/06/22 00:07:49;;;;;;;0.40;0.30;;;18.70;76.40;;;;;;5053527;28;20048;-75
2021/06/22 00:10:16;;;;;;;0.70;0.40;;;18.70;76.50;;;;;;5053620;28;20044;-75
2021/06/22 00:12:43;;;;;;;0.70;0.30;;;18.70;76.40;;;;;;5054610;28;20087;-74
2021/06/22 00:15:11;;;;;;;0.70;0.40;;;18.80;76.40;;;;;;5055013;28;20036;-74
2021/06/22 00:17:37;;;;;;;0.43;0.30;;;18.80;76.40;;;;;;5054936;28;20102;-75
2021/06/22 00:20:05;;;;;;;0.85;0.47;;;18.70;76.40;;;;;;5054764;28;20032;-75
2021/06/22 00:22:31;;;;;;;0.22;0.20;;;18.80;76.50;;;;;;5054779;28;20491;-75
2021/06/22 00:24:59;;;;;;;1.20;0.30;;;18.80;76.20;;;;;;5058075;28;20021;-74
2021/06/22 00:27:25;;;;;;;0.40;0.28;;;18.80;76.10;;;;;;5058318;28;20056;-75
2021/06/22 00:29:51;;;;;;;0.32;0.20;;;18.80;76.20;;;;;;5058201;28;20047;-75
2021/06/22 00:32:20;;;;;;;0.40;0.30;;;18.80;76.30;;;;;;5058796;28;20126;-75
2021/06/22 00:34:46;;;;;;;0.35;0.30;;;18.70;76.30;;;;;;5078134;28;20016;-75
2021/06/22 00:37:17;;;;;;;0.35;0.28;;;18.70;76.10;;;;;;5076720;28;20068;-75
2021/06/22 00:39:43;;;;;;;0.50;0.38;;;18.70;76.20;;;;;;5063515;28;20037;-75
2021/06/22 00:42:10;;;;;;;0.45;0.30;;;18.70;76.50;;;;;;5058138;28;20107;-75
2021/06/22 00:44:49;;;;;;;0.40;0.30;;;18.70;76.10;;;;;;5090333;28;20088;-75
2021/06/22 00:47:17;;;;;;;0.70;0.40;;;18.70;76.20;;;;;;5056889;28;20664;-74
2021/06/22 00:49:44;;;;;;;0.75;0.38;;;18.70;76.40;;;;;;5073305;28;20522;-75
2021/06/22 00:52:10;;;;;;;0.38;0.30;;;18.70;76.20;;;;;;5071372;28;20056;-75
2021/06/22 00:54:36;;;;;;;0.50;0.30;;;18.60;76.50;;;;;;5076912;28;20017;-75
2021/06/22 00:57:11;;;;;;;0.40;0.28;;;18.70;76.20;;;;;;5057764;28;20033;-75
2021/06/22 00:59:37;;;;;;;0.55;0.38;;;18.60;76.10;;;;;;5074359;28;20095;-75
2021/06/22 01:02:04;;;;;;;0.85;0.40;;;18.70;76.10;;;;;;5077721;28;20029;-74
2021/06/22 01:04:32;;;;;;;0.45;0.30;;;18.70;76.50;;;;;;5077601;28;20020;-75
2021/06/22 01:06:59;;;;;;;0.28;0.20;;;18.70;76.60;;;;;;5076295;28;20142;-75
2021/06/22 01:09:25;;;;;;;0.43;0.30;;;18.60;76.70;;;;;;5076197;28;20028;-75
2021/06/22 01:11:51;;;;;;;0.50;0.30;;;18.60;76.20;;;;;;5077523;28;20035;-75
2021/06/22 01:14:18;;;;;;;0.52;0.30;;;18.60;76.80;;;;;;5077787;28;20099;-75
2021/06/22 01:16:43;;;;;;;0.50;0.30;;;18.60;76.50;;;;;;5071780;28;20052;-75
2021/06/22 01:19:09;;;;;;;0.52;0.30;;;18.50;76.50;;;;;;5057339;28;20025;-75
2021/06/22 01:21:37;;;;;;;0.30;0.20;;;18.50;76.70;;;;;;5055970;28;20761;-75
2021/06/22 01:24:08;;;;;;;0.50;0.30;;;18.50;76.40;;;;;;5057318;28;20075;-75
2021/06/22 01:26:36;;;;;;;0.50;0.22;;;18.50;76.40;;;;;;5075830;28;20456;-75
2021/06/22 01:29:08;;;;;;;0.47;0.30;;;18.50;76.30;;;;;;5077204;28;20081;-74
2021/06/22 01:31:35;;;;;;;0.50;0.30;;;18.50;76.40;;;;;;5077040;28;20398;-75
2021/06/22 01:34:01;;;;;;;0.52;0.30;;;18.50;76.60;;;;;;5062886;28;20052;-75
2021/06/22 01:36:29;;;;;;;0.55;0.30;;;18.50;76.40;;;;;;5055631;28;20021;-75
2021/06/22 01:38:55;;;;;;;0.40;0.25;;;18.50;76.50;;;;;;5057021;28;20039;-75
2021/06/22 01:41:20;;;;;;;0.68;0.40;;;18.50;76.60;;;;;;5065490;28;20141;-75
2021/06/22 01:43:46;;;;;;;0.60;0.30;;;18.40;76.70;;;;;;5056678;28;20048;-75
2021/06/22 01:46:12;;;;;;;0.28;0.20;;;18.40;76.60;;;;;;5072060;28;20484;-75
2021/06/22 01:48:38;;;;;;;0.40;0.30;;;18.40;76.60;;;;;;5071963;28;20032;-75
2021/06/22 01:51:04;;;;;;;0.60;0.30;;;18.40;76.70;;;;;;5056902;28;20086;-75
2021/06/22 01:53:29;;;;;;;0.68;0.40;;;18.30;76.80;;;;;;5056545;28;20071;-75
2021/06/22 01:55:55;;;;;;;0.30;0.30;;;18.40;76.70;;;;;;5056670;28;20135;-74
2021/06/22 01:58:21;;;;;;;0.60;0.28;;;18.40;76.80;;;;;;5057916;28;20030;-75
2021/06/22 02:00:50;;;;;;;0.30;0.20;;;18.40;76.60;;;;;;5096990;28;20035;-75
2021/06/22 02:03:18;;;;;;;0.60;0.30;;;18.30;76.80;;;;;;5096890;28;20036;-75
2021/06/22 02:05:45;;;;;;;0.55;0.32;;;18.30;76.70;;;;;;5086715;28;20029;-75
2021/06/22 02:08:11;;;;;;;0.40;0.28;;;18.30;76.90;;;;;;5056445;28;20117;-75
2021/06/22 02:10:37;;;;;;;0.32;0.20;;;18.30;77.00;;;;;;5055000;28;20056;-75
2021/06/22 02:13:04;;;;;;;0.60;0.30;;;18.30;76.90;;;;;;5056259;28;20083;-75
2021/06/22 02:15:30;;;;;;;0.73;0.38;;;18.30;76.50;;;;;;5056076;28;20116;-75
2021/06/22 02:17:56;;;;;;;0.50;0.35;;;18.30;76.80;;;;;;5056140;28;20060;-74
2021/06/22 02:20:21;;;;;;;0.75;0.40;;;18.30;76.80;;;;;;5054762;28;20029;-74
2021/06/22 02:22:47;;;;;;;0.35;0.25;;;18.30;76.90;;;;;;5056056;28;20028;-75
2021/06/22 02:25:14;;;;;;;0.43;0.30;;;18.30;76.70;;;;;;5056170;28;20086;-75
2021/06/22 02:27:41;;;;;;;0.70;0.40;;;18.30;77.00;;;;;;5062054;28;20029;-75
2021/06/22 02:30:11;;;;;;;0.63;0.32;;;18.30;77.00;;;;;;5067032;28;20055;-74
2021/06/22 02:32:38;;;;;;;0.50;0.32;;;18.20;77.10;;;;;;5055990;28;20373;-74
2021/06/22 02:35:07;;;;;;;0.70;0.40;;;18.20;77.00;;;;;;5055945;28;20039;-75
2021/06/22 02:37:33;;;;;;;0.57;0.30;;;18.20;77.20;;;;;;5055918;28;20020;-75
2021/06/22 02:39:59;;;;;;;0.50;0.30;;;18.20;77.20;;;;;;5055623;28;20120;-74
2021/06/22 02:42:24;;;;;;;0.73;0.40;;;18.10;77.10;;;;;;5054434;28;20043;-75
2021/06/22 02:44:50;;;;;;;0.60;0.30;;;18.20;77.10;;;;;;5055796;28;20025;-75
2021/06/22 02:47:16;;;;;;;0.35;0.30;;;18.20;77.10;;;;;;5053962;28;20064;-75
2021/06/22 02:49:42;;;;;;;0.65;0.45;;;18.20;77.10;;;;;;5070999;28;20021;-75
2021/06/22 02:52:07;;;;;;;0.77;0.30;;;18.20;77.10;;;;;;5054535;28;20036;-74
2021/06/22 02:54:37;;;;;;;0.60;0.40;;;18.20;77.50;;;;;;5055685;28;20032;-75
2021/06/22 02:57:08;;;;;;;0.50;0.30;;;18.20;77.40;;;;;;5054187;28;20036;-75
2021/06/22 02:59:34;;;;;;;0.80;0.50;;;18.20;77.20;;;;;;5086221;28;20036;-75
2021/06/22 03:02:00;;;;;;;0.75;0.40;;;18.20;77.40;;;;;;5095803;28;20024;-75
2021/06/22 03:04:26;;;;;;;0.60;0.40;;;18.20;77.30;;;;;;5095523;28;20031;-74
2021/06/22 03:06:52;;;;;;;0.60;0.40;;;18.20;77.10;;;;;;5094248;28;20101;-75
2021/06/22 03:09:17;;;;;;;0.40;0.30;;;18.20;77.50;;;;;;5056271;28;20391;-75
2021/06/22 03:11:43;;;;;;;0.47;0.30;;;18.20;77.20;;;;;;5055646;28;20021;-75
2021/06/22 03:14:09;;;;;;;0.60;0.30;;;18.20;77.10;;;;;;5064848;28;20021;-75
2021/06/22 03:16:35;;;;;;;1.00;0.50;;;18.10;77.70;;;;;;5055100;28;20134;-75
2021/06/22 03:19:01;;;;;;;0.57;0.30;;;18.10;77.40;;;;;;5055013;28;20029;-75
2021/06/22 03:21:26;;;;;;;0.47;0.30;;;18.20;77.30;;;;;;5055348;28;20025;-74
2021/06/22 03:23:52;;;;;;;0.50;0.30;;;18.20;77.40;;;;;;5053981;28;20033;-75
2021/06/22 03:26:18;;;;;;;0.50;0.40;;;18.20;77.20;;;;;;5073678;28;20035;-75
2021/06/22 03:28:43;;;;;;;0.63;0.32;;;18.20;77.20;;;;;;5071271;28;20060;-75
2021/06/22 03:31:09;;;;;;;0.70;0.50;;;18.20;77.30;;;;;;5053864;28;20033;-75
2021/06/22 03:33:35;;;;;;;1.05;0.50;;;18.10;77.60;;;;;;5053739;28;20032;-75
2021/06/22 03:36:00;;;;;;;0.60;0.50;;;18.10;77.50;;;;;;5054831;28;20120;-75
2021/06/22 03:38:26;;;;;;;0.63;0.47;;;18.00;78.00;;;;;;5070421;28;20033;-74
2021/06/22 03:40:52;;;;;;;0.55;0.35;;;18.00;77.90;;;;;;5053816;28;20059;-75
2021/06/22 03:43:21;;;;;;;0.60;0.40;;;18.00;77.90;;;;;;5055025;28;20036;-75
2021/06/22 03:45:47;;;;;;;0.80;0.50;;;18.00;77.70;;;;;;5054950;28;20021;-75
2021/06/22 03:48:12;;;;;;;0.60;0.40;;;18.00;77.70;;;;;;5053767;28;20115;-74
2021/06/22 03:50:38;;;;;;;0.63;0.50;;;18.00;77.70;;;;;;5054783;28;20036;-75
2021/06/22 03:53:04;;;;;;;0.70;0.40;;;18.00;77.90;;;;;;5054914;28;20021;-75
2021/06/22 03:55:30;;;;;;;0.90;0.55;;;18.00;77.50;;;;;;5053552;28;20025;-75
2021/06/22 03:58:00;;;;;;;0.57;0.40;;;18.00;77.50;;;;;;5055323;28;20020;-74
2021/06/22 04:00:26;;;;;;;0.75;0.50;;;18.00;77.40;;;;;;5095532;28;20020;-75
2021/06/22 04:02:54;;;;;;;0.35;0.30;;;17.80;77.90;;;;;;5061052;28;20029;-74
2021/06/22 04:05:19;;;;;;;0.40;0.40;;;17.80;78.20;;;;;;5090785;28;20096;-74
2021/06/22 04:07:45;;;;;;;0.80;0.50;;;17.80;78.20;;;;;;5057289;28;20550;-75
2021/06/22 04:10:11;;;;;;;0.60;0.40;;;17.80;78.10;;;;;;5074015;28;20090;-75
2021/06/22 04:12:37;;;;;;;0.60;0.43;;;17.80;77.90;;;;;;5058431;28;20081;-75
2021/06/22 04:15:04;;;;;;;0.73;0.50;;;17.80;78.00;;;;;;5057386;28;20495;-75
2021/06/22 04:17:29;;;;;;;0.60;0.32;;;17.80;78.00;;;;;;5072543;28;20434;-75
2021/06/22 04:19:55;;;;;;;0.43;0.30;;;17.80;77.90;;;;;;5058503;28;20039;-75
2021/06/22 04:22:20;;;;;;;0.57;0.40;;;17.80;78.00;;;;;;5058491;28;20032;-75
2021/06/22 04:24:46;;;;;;;0.60;0.40;;;17.80;77.70;;;;;;5058510;28;20090;-74
2021/06/22 04:27:12;;;;;;;0.88;0.40;;;17.70;77.60;;;;;;5057341;28;20068;-75
2021/06/22 04:29:38;;;;;;;0.43;0.35;;;17.70;77.50;;;;;;5058126;28;20036;-75
2021/06/22 04:32:04;;;;;;;0.40;0.30;;;17.70;77.70;;;;;;5073748;28;20029;-75
2021/06/22 04:34:30;;;;;;;0.30;0.30;;;17.60;77.80;;;;;;5058295;28;20057;-75
2021/06/22 04:36:55;;;;;;;0.50;0.40;;;17.70;77.70;;;;;;5058045;28;20025;-74
2021/06/22 04:39:21;;;;;;;0.47;0.30;;;17.70;77.60;;;;;;5073597;28;20037;-75
2021/06/22 04:41:46;;;;;;;0.68;0.32;;;17.60;77.50;;;;;;5057366;28;20506;-75
2021/06/22 04:44:12;;;;;;;0.30;0.20;;;17.70;77.30;;;;;;5058044;28;20490;-75
2021/06/22 04:46:38;;;;;;;0.70;0.35;;;17.70;77.20;;;;;;5057842;28;20025;-75
2021/06/22 04:49:04;;;;;;;0.45;0.20;;;17.70;77.00;;;;;;5057789;28;20108;-74
2021/06/22 04:51:29;;;;;;;0.75;0.50;;;17.60;77.40;;;;;;5057959;28;20025;-77
2021/06/22 04:53:55;;;;;;;0.47;0.35;;;17.60;77.30;;;;;;5056591;28;20056;-77
2021/06/22 04:56:22;;;;;;;0.32;0.30;;;17.60;77.20;;;;;;5057639;28;20029;-76
2021/06/22 04:58:53;;;;;;;0.40;0.30;;;17.60;77.00;;;;;;5066731;28;20066;-78
2021/06/22 05:01:19;;;;;;;0.68;0.40;;;17.60;77.00;;;;;;5096682;28;20070;-78
2021/06/22 05:03:45;;;;;;;0.57;0.38;;;17.70;76.70;;;;;;5097672;28;20032;-81
2021/06/22 05:06:11;;;;;;;0.40;0.30;;;17.70;76.70;;;;;;5079073;28;20025;-81
2021/06/22 05:08:38;;;;;;;0.30;0.30;;;17.70;76.60;;;;;;5056267;28;20040;-82
2021/06/22 05:11:05;;;;;;;0.50;0.30;;;17.70;76.70;;;;;;5063435;28;20013;-80
2021/06/22 05:13:31;;;;;;;0.50;0.28;;;17.70;76.50;;;;;;5077429;28;20532;-78
2021/06/22 05:15:57;;;;;;;0.50;0.35;;;17.70;76.40;;;;;;5077382;28;20036;-87
2021/06/22 05:18:23;;;;;;;0.50;0.38;;;17.60;76.50;;;;;;5075517;28;20043;-83
2021/06/22 05:20:49;;;;;;;0.45;0.30;;;17.60;76.40;;;;;;5056978;28;20044;-76
2021/06/22 05:23:15;;;;;;;0.57;0.38;;;17.60;76.50;;;;;;5056427;28;20017;-78
2021/06/22 05:25:41;;;;;;;0.50;0.30;;;17.70;76.20;;;;;;5055513;28;20032;-91
2021/06/22 05:28:07;;;;;;;0.22;0.20;;;17.70;76.10;;;;;;5072564;28;20384;-80
2021/06/22 05:30:33;;;;;;;0.65;0.45;;;17.60;76.10;;;;;;5057008;28;20025;-73
2021/06/22 05:32:58;;;;;;;0.20;0.20;;;17.60;76.00;;;;;;5053563;28;20522;-74
2021/06/22 05:35:24;;;;;;;0.30;0.20;;;17.50;76.20;;;;;;5062270;28;20100;-74
2021/06/22 05:37:50;;;;;;;0.60;0.30;;;17.50;76.10;;;;;;5075965;28;20032;-75
2021/06/22 05:40:16;;;;;;;0.30;0.20;;;17.50;76.20;;;;;;5076828;28;20029;-74
2021/06/22 05:42:41;;;;;;;0.30;0.20;;;17.50;76.20;;;;;;5058527;28;20033;-74
2021/06/22 05:45:07;;;;;;;0.45;0.30;;;17.60;76.00;;;;;;5074500;28;20051;-74
2021/06/22 05:47:33;;;;;;;0.40;0.30;;;17.60;75.70;;;;;;5056784;28;20025;-74
2021/06/22 05:50:00;;;;;;;0.50;0.30;;;17.70;75.70;;;;;;5056841;28;20025;-74
2021/06/22 05:52:26;;;;;;;0.43;0.30;;;17.70;75.40;;;;;;5067244;28;20017;-75
2021/06/22 05:54:51;;;;;;;0.50;0.30;;;17.70;75.50;;;;;;5076726;28;20428;-74
2021/06/22 05:57:17;;;;;;;0.55;0.32;;;17.80;75.10;;;;;;5070844;28;20531;-74
2021/06/22 05:59:43;;;;;;;0.20;0.20;;;17.70;74.80;;;;;;5081088;28;20040;-74
2021/06/22 06:02:08;;;;;;;0.20;0.20;;;17.80;74.90;;;;;;5086291;28;20075;-74
2021/06/22 06:04:34;;;;;;;0.22;0.20;;;17.80;75.10;;;;;;5056203;28;20036;-74
2021/06/22 06:07:00;;;;;;;0.45;0.20;;;17.80;75.20;;;;;;5056321;28;20056;-74
2021/06/22 06:09:26;;;;;;;0.40;0.30;;;17.80;75.20;;;;;;5058874;28;20047;-74
2021/06/22 06:11:53;;;;;;;0.45;0.30;;;17.80;74.80;;;;;;5056603;28;20064;-74
2021/06/22 06:14:18;;;;;;;0.40;0.20;;;17.80;74.70;;;;;;5056137;28;20028;-74
2021/06/22 06:16:44;;;;;;;0.38;0.20;;;17.80;74.90;;;;;;5056078;28;20056;-74
2021/06/22 06:19:10;;;;;;;0.65;0.30;;;17.80;74.80;;;;;;5056058;28;20033;-74
2021/06/22 06:21:38;;;;;;;0.20;0.20;;;17.90;74.60;;;;;;5055510;28;20036;-74
2021/06/22 06:24:04;;;;;;;0.28;0.20;;;17.90;74.60;;;;;;5056031;28;20037;-74
2021/06/22 06:26:35;;;;;;;0.30;0.28;;;18.00;74.60;;;;;;5055958;28;20060;-74
2021/06/22 06:29:10;;;;;;;0.35;0.30;;;18.00;74.60;;;;;;5071326;28;20028;-74
2021/06/22 06:31:36;;;;;;;0.32;0.20;;;18.00;74.10;;;;;;5054980;28;20028;-74
2021/06/22 06:34:01;;;;;;;0.30;0.30;;;18.20;73.70;;;;;;5054360;28;20088;-74
2021/06/22 06:36:27;;;;;;;0.50;0.20;;;18.10;73.50;;;;;;5055755;28;20060;-73
2021/06/22 06:38:53;;;;;;;0.25;0.20;;;18.00;73.90;;;;;;5055739;28;20036;-74
2021/06/22 06:41:18;;;;;;;0.20;0.20;;;18.00;73.40;;;;;;5055933;28;20130;-74
2021/06/22 06:43:44;;;;;;;0.40;0.30;;;18.00;73.40;;;;;;5074524;28;20035;-74
2021/06/22 06:46:09;;;;;;;0.40;0.30;;;18.00;73.40;;;;;;5074506;28;20029;-74
2021/06/22 06:48:35;;;;;;;0.40;0.20;;;18.00;73.30;;;;;;5073583;28;20509;-74
2021/06/22 06:51:03;;;;;;;0.22;0.20;;;18.00;73.50;;;;;;5074168;28;20021;-74
2021/06/22 06:53:29;;;;;;;0.30;0.20;;;18.10;73.20;;;;;;5075589;28;20028;-74
2021/06/22 06:55:54;;;;;;;0.30;0.20;;;18.10;73.10;;;;;;5059636;28;20086;-74
2021/06/22 06:58:20;;;;;;;0.40;0.20;;;18.20;73.00;;;;;;5056941;28;20033;-74
2021/06/22 07:00:46;;;;;;;0.20;0.20;;;18.10;72.90;;;;;;5056018;28;20151;-74
2021/06/22 07:03:12;;;;;;;0.20;0.20;;;18.20;73.00;;;;;;5054155;28;20033;-74
2021/06/22 07:05:38;;;;;;;0.32;0.20;;;18.20;72.80;;;;;;5054880;28;20027;-74
2021/06/22 07:08:04;;;;;;;0.20;0.20;;;18.20;72.60;;;;;;5055468;28;20029;-74
2021/06/22 07:10:32;;;;;;;0.17;0.17;;;18.20;72.70;;;;;;5066209;28;20021;-74
2021/06/22 07:12:59;;;;;;;0.20;0.20;;;18.20;72.60;;;;;;5074350;28;20055;-74
2021/06/22 07:15:25;;;;;;;0.30;0.20;;;18.30;72.80;;;;;;5075355;28;20024;-74
2021/06/22 07:17:52;;;;;;;0.10;0.10;;;18.30;72.60;;;;;;5070121;28;20411;-74
2021/06/22 07:20:17;;;;;;;0.38;0.30;;;18.20;72.60;;;;;;5055245;28;20529;-74
2021/06/22 07:22:43;;;;;;;0.13;0.10;;;18.30;72.10;;;;;;5055442;28;20029;-74
2021/06/22 07:25:09;;;;;;;0.20;0.20;;;18.30;72.10;;;;;;5087730;28;20059;-74
2021/06/22 07:27:35;;;;;;;0.20;0.20;;;18.30;72.30;;;;;;5061282;28;20036;-74
2021/06/22 07:30:01;;;;;;;0.20;0.20;;;18.20;72.00;;;;;;5073883;28;20162;-74
2021/06/22 07:32:27;;;;;;;0.30;0.20;;;18.20;72.40;;;;;;5076542;28;20028;-73
2021/06/22 07:34:52;;;;;;;0.20;0.20;;;18.20;72.50;;;;;;5071523;28;20021;-74
2021/06/22 07:37:18;;;;;;;0.13;0.10;;;18.20;72.50;;;;;;5059102;28;20368;-74
2021/06/22 07:39:44;;;;;;;0.20;0.20;;;18.20;72.40;;;;;;5059383;28;20369;-74
2021/06/22 07:42:10;;;;;;;0.10;0.10;;;18.30;72.00;;;;;;5059238;28;20032;-74
2021/06/22 07:44:36;;;;;;;0.17;0.17;;;18.30;72.10;;;;;;5066613;28;20025;-74
2021/06/22 07:47:01;;;;;;;0.13;0.13;;;18.40;72.20;;;;;;5058990;28;20036;-74
2021/06/22 07:49:27;;;;;;;0.20;0.20;;;18.40;71.30;;;;;;5058758;28;20495;-74
2021/06/22 07:51:53;;;;;;;0.20;0.20;;;18.50;71.60;;;;;;5058810;28;20086;-74
2021/06/22 07:54:19;;;;;;;0.20;0.20;;;18.40;71.20;;;;;;5074599;28;20465;-74
2021/06/22 07:56:45;;;;;;;0.20;0.20;;;18.50;71.60;;;;;;5057473;28;20122;-74
2021/06/22 07:59:10;;;;;;;0.20;0.20;;;18.50;71.40;;;;;;5074402;28;20028;-74
2021/06/22 08:01:36;;;;;;;0.10;0.10;;;18.50;71.20;;;;;;5084633;28;20029;-74
2021/06/22 08:04:02;;;;;;;0.10;0.10;;;18.60;71.20;;;;;;5058518;28;20075;-74
2021/06/22 08:06:27;;;;;;;0.20;0.20;;;18.60;70.30;;;;;;5074156;28;20096;-74
2021/06/22 08:08:53;;;;;;;0.43;0.20;;;18.70;70.80;;;;;;5074111;28;20028;-74
2021/06/22 08:11:18;;;;;;;0.20;0.20;;;18.60;71.00;;;;;;5072941;28;20034;-74
2021/06/22 08:13:44;;;;;;;0.20;0.20;;;18.60;70.40;;;;;;5063841;28;20021;-74
2021/06/22 08:16:10;;;;;;;0.10;0.10;;;18.70;70.60;;;;;;5072709;28;20143;-74
2021/06/22 08:18:36;;;;;;;0.25;0.13;;;18.60;70.60;;;;;;5076379;28;20162;-74
2021/06/22 08:21:03;;;;;;;0.40;0.20;;;18.70;70.50;;;;;;5058656;28;20496;-74
2021/06/22 08:23:28;;;;;;;0.17;0.10;;;18.60;70.30;;;;;;5058237;28;20036;-73
2021/06/22 08:25:55;;;;;;;0.20;0.20;;;18.60;70.90;;;;;;5069431;28;20032;-74
2021/06/22 08:28:21;;;;;;;0.20;0.10;;;18.70;70.30;;;;;;5076878;28;20020;-74
2021/06/22 08:30:47;;;;;;;0.10;0.10;;;18.60;70.80;;;;;;5078415;28;20024;-74
2021/06/22 08:33:13;;;;;;;0.20;0.20;;;18.60;70.60;;;;;;5058081;28;20036;-74
2021/06/22 08:35:40;;;;;;;0.10;0.10;;;18.60;70.60;;;;;;5057718;28;20025;-74
2021/06/22 08:38:08;;;;;;;0.10;0.10;;;18.60;70.60;;;;;;5065526;28;20029;-74
2021/06/22 08:40:35;;;;;;;0.25;0.20;;;18.70;70.40;;;;;;5073338;28;20028;-74
2021/06/22 08:43:00;;;;;;;0.17;0.10;;;18.70;70.30;;;;;;5075200;28;20020;-74
2021/06/22 08:45:26;;;;;;;0.20;0.20;;;18.50;70.20;;;;;;5075762;28;20025;-74
2021/06/22 08:47:52;;;;;;;0.40;0.20;;;18.60;70.70;;;;;;5076396;28;20025;-74
2021/06/22 08:50:19;;;;;;;0.20;0.20;;;18.60;70.50;;;;;;5077594;28;20023;-74
2021/06/22 08:52:45;;;;;;;0.10;0.10;;;18.50;70.40;;;;;;5076385;28;20012;-75
2021/06/22 08:55:27;;;;;;;0.10;0.10;;;18.40;70.60;;;;;;5075723;28;20115;-74
2021/06/22 08:58:02;;;;;;;0.10;0.10;;;18.50;70.70;;;;;;5071948;28;20061;-74
2021/06/22 09:00:30;;;;;;;0.10;0.10;;;18.50;70.50;;;;;;5077855;28;20574;-75
2021/06/22 09:03:04;;;;;;;0.20;0.20;;;18.50;71.00;;;;;;5065916;28;20068;-75
2021/06/22 09:05:30;;;;;;;0.10;0.10;;;18.60;70.90;;;;;;5080064;28;20167;-74
2021/06/22 09:07:56;;;;;;;0.15;0.10;;;18.60;70.60;;;;;;5076181;28;20024;-74
2021/06/22 09:10:29;;;;;;;0.45;0.20;;;18.60;70.60;;;;;;5077305;28;20025;-74
2021/06/22 09:12:55;;;;;;;0.10;0.10;;;18.70;70.50;;;;;;5065722;28;20056;-74
2021/06/22 09:15:27;;;;;;;0.20;0.20;;;18.60;70.60;;;;;;5064263;28;20024;-74
2021/06/22 09:17:54;;;;;;;0.10;0.10;;;18.70;70.60;;;;;;5073795;28;20094;-74
2021/06/22 09:20:40;;;;;;;0.30;0.20;;;18.80;70.60;;;;;;5076503;28;20039;-73
2021/06/22 09:23:15;;;;;;;0.20;0.20;;;18.80;69.90;;;;;;5075667;28;20378;-74
2021/06/22 09:25:42;;;;;;;0.15;0.15;;;18.80;70.20;;;;;;5071944;28;20120;-74
2021/06/22 09:28:08;;;;;;;0.20;0.10;;;18.90;70.70;;;;;;5075182;28;20082;-73
2021/06/22 09:30:37;;;;;;;0.10;0.10;;;18.90;70.60;;;;;;5075453;28;20040;-73
2021/06/22 09:33:12;;;;;;;0.10;0.10;;;18.80;71.10;;;;;;5074848;28;20023;-74
2021/06/22 09:35:37;;;;;;;0.20;0.10;;;18.80;71.40;;;;;;5076025;28;20021;-73
2021/06/22 09:38:04;;;;;;;0.13;0.13;;;18.70;71.70;;;;;;5077084;28;20046;-74
2021/06/22 09:40:29;;;;;;;0.20;0.20;;;18.70;71.80;;;;;;5073959;28;20044;-73
2021/06/22 09:42:57;;;;;;;0.10;0.10;;;18.60;71.30;;;;;;5091253;28;20494;-74
2021/06/22 09:45:24;;;;;;;0.20;0.20;;;18.60;72.30;;;;;;5070982;28;20036;-74
2021/06/22 09:47:50;;;;;;;0.30;0.20;;;18.60;72.70;;;;;;5056673;28;20050;-73
2021/06/22 09:50:44;;;;;;;0.10;0.10;;;18.60;72.70;;;;;;5101747;28;20527;-74
2021/06/22 09:53:29;;;;;;;0.20;0.20;;;18.60;72.50;;;;;;5055510;28;20162;-73
2021/06/22 09:55:56;;;;;;;0.20;0.20;;;18.70;72.30;;;;;;5071398;28;20486;-74
2021/06/22 09:58:41;;;;;;;0.20;0.20;;;18.80;71.70;;;;;;5077161;28;20020;-74
2021/06/22 10:01:28;;;;;;;0.15;0.15;;;18.90;71.10;;;;;;5073894;28;20096;-74
2021/06/22 10:03:55;;;;;;;0.20;0.20;;;19.00;71.20;;;;;;5074500;28;20181;-73
2021/06/22 10:06:21;;;;;;;0.20;0.20;;;19.00;71.20;;;;;;5074828;28;20051;-74
2021/06/22 10:08:55;;;;;;;0.20;0.20;;;19.00;71.30;;;;;;5073881;28;20497;-74
2021/06/22 10:11:39;;;;;;;0.15;0.10;;;19.20;71.10;;;;;;5075769;28;20146;-74
2021/06/22 10:14:10;;;;;;;0.10;0.10;;;19.20;71.00;;;;;;5072800;28;20032;-74
2021/06/22 10:16:36;;;;;;;0.20;0.20;;;19.20;71.20;;;;;;5075240;28;20040;-74
2021/06/22 10:19:05;;;;;;;0.10;0.10;;;19.20;71.00;;;;;;5073872;28;20071;-74
2021/06/22 10:21:33;;;;;;;0.10;0.10;;;19.20;71.50;;;;;;5059043;28;20040;-74
2021/06/22 10:23:59;;;;;;;0.20;0.20;;;19.20;71.50;;;;;;5064000;28;20027;-74
2021/06/22 10:26:28;;;;;;;0.20;0.20;;;19.10;71.10;;;;;;5074036;28;20028;-74
2021/06/22 10:29:01;;;;;;;0.20;0.20;;;19.10;71.60;;;;;;5074563;28;20031;-73
2021/06/22 10:31:29;;;;;;;0.10;0.10;;;19.20;71.40;;;;;;5074359;28;20031;-74
2021/06/22 10:33:56;;;;;;;0.10;0.10;;;19.20;71.60;;;;;;5075523;28;20016;-75
2021/06/22 10:36:35;;;;;;;0.20;0.20;;;19.20;71.90;;;;;;5075492;28;20483;-75
2021/06/22 10:39:08;;;;;;;0.13;0.13;;;19.20;71.30;;;;;;5056106;28;20024;-75
2021/06/22 10:41:39;;;;;;;0.20;0.10;;;19.20;71.30;;;;;;5054872;28;20029;-75
2021/06/22 10:44:24;;;;;;;0.20;0.13;;;19.20;71.50;;;;;;5065136;28;20037;-75
2021/06/22 10:47:22;;;;;;;0.20;0.20;;;19.40;70.80;;;;;;5055619;28;20391;-75
2021/06/22 10:50:10;;;;;;;0.20;0.10;;;19.40;70.70;;;;;;5055440;28;20029;-75
2021/06/22 10:52:48;;;;;;;0.20;0.17;;;19.00;71.60;;;;;;5055364;28;20036;-75
2021/06/22 10:55:21;;;;;;;0.10;0.10;;;18.90;71.80;;;;;;5088067;28;20024;-75
2021/06/22 11:00:28;;;;;;;0.20;0.10;;;18.80;72.10;;;;;;5091942;28;20032;-75
2021/06/22 11:03:18;;;;;;;0.20;0.13;;;18.60;72.20;;;;;;5096059;28;20111;-75
2021/06/22 11:05:44;;;;;;;0.52;0.20;;;18.60;72.10;;;;;;5073722;28;20071;-75
2021/06/22 11:08:13;;;;;;;0.20;0.20;;;18.70;71.90;;;;;;5055089;28;20028;-75
2021/06/22 11:10:48;;;;;;;0.20;0.20;;;18.80;71.20;;;;;;5054392;28;20589;-75
2021/06/22 11:13:32;;;;;;;0.20;0.20;;;19.00;71.40;;;;;;5070506;28;20483;-75
2021/06/22 11:16:02;;;;;;;0.20;0.20;;;19.00;71.00;;;;;;5073466;28;20110;-75
2021/06/22 11:18:51;;;;;;;1.17;0.20;;;19.00;70.80;;;;;;5057769;28;20090;-75
2021/06/22 11:21:19;;;;;;;0.15;0.10;;;19.00;71.00;;;;;;5073892;28;20128;-75
2021/06/22 11:24:15;;;;;;;0.13;0.10;;;18.90;70.80;;;;;;5056607;28;20021;-75
2021/06/22 11:26:50;;;;;;;0.20;0.10;;;19.00;70.90;;;;;;5053733;28;20051;-75
2021/06/22 11:29:21;;;;;;;0.15;0.15;;;19.00;70.60;;;;;;5055245;28;20478;-75
2021/06/22 11:31:56;;;;;;;0.10;0.10;;;19.10;70.60;;;;;;5055129;28;20408;-75
2021/06/22 11:34:29;;;;;;;0.10;0.10;;;19.20;69.90;;;;;;5055078;28;20446;-75
2021/06/22 11:36:56;;;;;;;0.10;0.10;;;19.30;69.10;;;;;;5055475;28;20720;-75
2021/06/22 11:39:28;;;;;;;0.45;0.20;;;19.50;68.40;;;;;;5069661;28;20032;-75
2021/06/22 11:44:46;;;;;;;0.10;0.10;;;20.20;67.80;;;;;;5074756;28;20056;-75
2021/06/22 11:47:28;;;;;;;0.10;0.10;;;20.30;66.10;;;;;;5070713;28;20025;-75
2021/06/22 11:50:15;;;;;;;0.30;0.10;;;20.40;65.80;;;;;;5070416;28;20035;-75
2021/06/22 11:52:43;;;;;;;0.20;0.20;;;20.40;65.80;;;;;;5049715;28;20037;-78
2021/06/22 11:55:15;;;;;;;0.10;0.10;;;20.10;65.70;;;;;;5055144;28;20021;-74
2021/06/22 11:57:49;;;;;;;0.30;0.20;;;20.00;66.70;;;;;;5054816;28;20066;-74
2021/06/22 12:00:23;;;;;;;0.10;0.10;;;19.80;66.90;;;;;;5087981;28;20020;-75
2021/06/22 12:02:57;;;;;;;0.10;0.10;;;19.60;66.90;;;;;;5089507;28;20115;-75
2021/06/22 12:05:25;;;;;;;0.20;0.20;;;19.60;66.80;;;;;;5074817;28;20495;-76
2021/06/22 12:08:02;;;;;;;0.20;0.15;;;19.60;67.30;;;;;;5073670;28;20055;-76
2021/06/22 12:10:57;;;;;;;0.20;0.15;;;19.80;67.30;;;;;;5069000;28;20039;-73
2021/06/22 12:13:30;;;;;;;0.40;0.20;;;20.30;65.40;;;;;;5058194;28;20029;-76
2021/06/22 12:15:55;;;;;;;0.10;0.10;;;20.60;64.50;;;;;;5070162;28;20044;-74
2021/06/22 12:18:28;;;;;;;0.10;0.10;;;20.70;64.50;;;;;;5070333;28;20029;-74
2021/06/22 12:20:54;;;;;;;0.20;0.10;;;20.40;64.10;;;;;;5077298;28;20028;-74
2021/06/22 12:23:20;;;;;;;0.10;0.10;;;20.30;63.90;;;;;;5077410;28;20020;-74
2021/06/22 12:25:52;;;;;;;0.20;0.13;;;20.30;63.50;;;;;;5075217;28;20027;-74
2021/06/22 12:28:18;;;;;;;0.20;0.10;;;20.60;63.70;;;;;;5077333;28;20020;-75
2021/06/22 12:30:46;;;;;;;0.85;0.10;;;20.80;62.60;;;;;;5075017;28;20015;-75
2021/06/22 12:33:17;;;;;;;0.10;0.10;;;20.80;61.70;;;;;;5078059;28;20025;-75
2021/06/22 12:35:45;;;;;;;0.10;0.10;;;20.70;63.00;;;;;;5076997;28;20020;-75
2021/06/22 12:38:13;;;;;;;0.10;0.10;;;20.60;63.00;;;;;;5076903;28;20060;-75
2021/06/22 12:40:53;;;;;;;0.10;0.10;;;20.70;62.80;;;;;;5078128;28;20039;-75
2021/06/22 12:43:20;;;;;;;0.10;0.10;;;20.80;62.70;;;;;;5077935;28;20028;-74
2021/06/22 12:46:01;;;;;;;0.28;0.20;;;20.60;61.50;;;;;;5074948;28;20096;-74
2021/06/22 12:48:27;;;;;;;0.20;0.10;;;20.50;61.00;;;;;;5057963;28;20028;-75
2021/06/22 12:50:53;;;;;;;0.10;0.10;;;20.40;62.10;;;;;;5057846;28;20024;-75
2021/06/22 12:53:19;;;;;;;0.10;0.10;;;20.40;62.30;;;;;;5057681;28;20230;-75
2021/06/22 12:55:46;;;;;;;0.20;0.10;;;20.30;62.20;;;;;;5065759;28;20016;-75
2021/06/22 12:58:12;;;;;;;0.15;0.10;;;20.10;63.40;;;;;;5077683;28;20048;-75